Terminal Aerodrome Forecast
Issued by NWS

Home | Current Version | Previous Version | Text Only | Print | Product List | Glossary On
Versions: 1 2 3 4 5 6 7 8 9 10 11 12 13 14 15 16 17 18 19 20 21
185
FTUS43 KGRB 201134
TAFCWA
TAF
KCWA 201134Z 2012/2112 10005KT 2SM FZRAPL BR OVC003
     FM201300 12004KT 2SM -FZDZ BR OVC004
     FM201800 26005KT 5SM BR OVC005
     FM202100 27009G17KT P6SM OVC008
     FM202300 29007KT P6SM BKN017
     FM210200 30010KT P6SM SCT025=

USA.gov is the U.S. government's official web portal to all federal, state and local government web resources and services.